Time;durP1;ratioP1;P1;durP2;ratioP2;P2;SDS_P1;SDS_P2;PMS_P1;PMS_P2;Temp;Humidity;BMP_temperature;BMP_pressure;BME280_temperature;BME280_humidity;BME280_pressure;Samples;Min_cycle;Max_cycle;Signal;HPM_P1;HPM_P2
2023/03/28 00:04:16;;;;;;;8.10;4.67;;;;;;;-3.45;100.00;102479.44;10368722;28;20474;-74
2023/03/28 00:09:17;;;;;;;8.33;3.13;;;;;;;-3.52;100.00;102476.81;10366922;28;20069;-74
2023/03/28 00:14:17;;;;;;;5.97;4.18;;;;;;;-3.49;100.00;102486.50;10367153;28;20124;-74
2023/03/28 00:19:19;;;;;;;10.10;4.20;;;;;;;-3.51;100.00;102483.75;10377343;28;20045;-74
2023/03/28 00:24:20;;;;;;;10.20;4.55;;;;;;;-3.50;100.00;102475.38;10375404;28;20124;-74
2023/03/28 00:29:21;;;;;;;11.07;5.53;;;;;;;-3.42;100.00;102473.78;10373119;28;20046;-74
2023/03/28 00:34:21;;;;;;;4.80;3.57;;;;;;;-3.46;100.00;102479.22;10347957;28;20037;-74
2023/03/28 00:39:22;;;;;;;11.17;4.47;;;;;;;-3.53;100.00;102480.09;10394229;28;20489;-74
2023/03/28 00:44:42;;;;;;;9.30;5.30;;;;;;;-3.62;100.00;102478.88;10433318;28;20061;-74
2023/03/28 00:49:43;;;;;;;14.77;4.47;;;;;;;-3.48;100.00;102475.53;10395714;28;20541;-75
2023/03/28 00:54:44;;;;;;;11.05;3.78;;;;;;;-3.56;100.00;102472.00;10362111;28;20038;-75
2023/03/28 00:59:44;;;;;;;14.27;5.03;;;;;;;-3.62;100.00;102469.56;10395528;28;20124;-75
2023/03/28 01:04:53;;;;;;;8.77;5.30;;;;;;;-3.61;100.00;102481.63;10366658;28;20069;-75
2023/03/28 01:09:54;;;;;;;11.93;4.90;;;;;;;-3.76;100.00;102485.69;10354004;28;20390;-75
2023/03/28 01:14:55;;;;;;;12.60;6.37;;;;;;;-3.81;100.00;102490.91;10362960;28;20038;-75
2023/03/28 01:20:16;;;;;;;16.43;5.77;;;;;;;-3.77;100.00;102477.78;10391839;28;20103;-75
2023/03/28 01:25:42;;;;;;;13.68;6.05;;;;;;;-3.80;100.00;102475.78;10394940;28;20056;-75
2023/03/28 01:30:45;;;;;;;16.73;4.53;;;;;;;-3.83;100.00;102472.81;10400959;28;20429;-75
2023/03/28 01:35:45;;;;;;;15.90;7.45;;;;;;;-3.77;100.00;102468.50;10363261;28;20497;-75
2023/03/28 01:41:09;;;;;;;13.90;5.50;;;;;;;-3.76;100.00;102467.78;10401945;28;20055;-75
2023/03/28 01:46:22;;;;;;;14.93;6.72;;;;;;;-3.84;100.00;102478.63;10387329;28;20046;-75
2023/03/28 01:52:07;;;;;;;17.15;8.18;;;;;;;-3.85;100.00;102466.56;10402321;28;20045;-75
2023/03/28 01:57:29;;;;;;;17.05;7.32;;;;;;;-3.72;100.00;102464.91;10374702;28;20049;-75
2023/03/28 02:02:37;;;;;;;11.05;6.65;;;;;;;-3.70;100.00;102452.28;10368720;28;20042;-75
2023/03/28 02:07:39;;;;;;;20.02;9.25;;;;;;;-3.74;100.00;102444.91;10356606;28;20495;-75
2023/03/28 02:12:42;;;;;;;25.02;8.88;;;;;;;-3.83;100.00;102448.13;10419014;28;20037;-75
2023/03/28 02:17:47;;;;;;;16.27;8.32;;;;;;;-3.85;100.00;102448.66;10368787;28;20446;-75
2023/03/28 02:22:50;;;;;;;28.58;11.38;;;;;;;-3.89;100.00;102444.75;10385072;28;20073;-75
2023/03/28 02:27:52;;;;;;;12.85;8.40;;;;;;;-3.87;100.00;102451.00;10370146;28;20046;-75
2023/03/28 02:32:58;;;;;;;14.43;9.02;;;;;;;-3.84;100.00;102445.38;10415138;28;20400;-76
2023/03/28 02:38:28;;;;;;;16.15;10.23;;;;;;;-3.70;100.00;102439.47;10385802;28;20043;-75
2023/03/28 02:43:40;;;;;;;16.63;9.35;;;;;;;-3.63;100.00;102447.25;10399261;28;20041;-76
2023/03/28 02:48:51;;;;;;;21.20;9.98;;;;;;;-3.69;100.00;102446.44;10385803;28;20041;-76
2023/03/28 02:54:03;;;;;;;19.65;11.60;;;;;;;-3.62;100.00;102451.63;10386334;28;20042;-76
2023/03/28 02:59:07;;;;;;;19.35;9.10;;;;;;;-3.70;100.00;102452.28;10382561;28;20464;-76
2023/03/28 03:04:08;;;;;;;33.85;11.27;;;;;;;-3.79;100.00;102446.91;10384108;28;20037;-76
2023/03/28 03:09:08;;;;;;;31.10;10.63;;;;;;;-3.89;100.00;102433.63;10389333;28;20472;-76
2023/03/28 03:14:09;;;;;;;25.27;11.33;;;;;;;-3.94;100.00;102444.91;10364551;28;20041;-75
2023/03/28 03:19:09;;;;;;;20.77;9.87;;;;;;;-3.85;100.00;102435.88;10380974;28;20050;-76
2023/03/28 03:24:10;;;;;;;18.27;10.57;;;;;;;-3.89;100.00;102446.41;10383867;28;20424;-76
2023/03/28 03:29:10;;;;;;;15.43;10.27;;;;;;;-4.05;100.00;102446.03;10386175;28;20176;-76
2023/03/28 03:34:11;;;;;;;31.60;10.63;;;;;;;-4.06;100.00;102440.00;10378227;28;20389;-76
2023/03/28 03:39:11;;;;;;;20.70;9.87;;;;;;;-4.09;100.00;102448.91;10378333;28;20439;-76
2023/03/28 03:44:12;;;;;;;16.83;11.53;;;;;;;-4.10;100.00;102449.63;10403123;28;20033;-76
2023/03/28 03:49:12;;;;;;;21.40;11.40;;;;;;;-4.04;100.00;102447.88;10396542;28;20041;-75
2023/03/28 03:54:13;;;;;;;15.67;9.27;;;;;;;-4.14;100.00;102451.78;10404672;28;20129;-75
2023/03/28 03:59:14;;;;;;;19.40;11.30;;;;;;;-4.22;100.00;102448.94;10384112;28;20037;-76
2023/03/28 04:04:15;;;;;;;20.37;13.17;;;;;;;-4.24;100.00;102443.59;10345414;28;20037;-76
2023/03/28 04:09:15;;;;;;;20.10;11.03;;;;;;;-4.18;100.00;102448.63;10368451;28;20125;-75
2023/03/28 04:14:16;;;;;;;18.20;9.40;;;;;;;-4.16;100.00;102442.97;10407361;28;20037;-75
2023/03/28 04:19:17;;;;;;;21.87;11.70;;;;;;;-4.31;100.00;102448.63;10383039;28;20129;-75
2023/03/28 04:24:19;;;;;;;17.43;9.83;;;;;;;-4.35;100.00;102444.75;10364159;28;20052;-76
2023/03/28 04:29:29;;;;;;;21.65;12.07;;;;;;;-4.33;100.00;102447.50;10362479;28;20041;-75
2023/03/28 04:34:30;;;;;;;18.58;12.45;;;;;;;-4.33;100.00;102452.63;10363337;28;20103;-76
2023/03/28 04:39:32;;;;;;;22.87;13.20;;;;;;;-4.27;100.00;102450.88;10336775;28;20053;-74
2023/03/28 04:44:33;;;;;;;19.17;11.85;;;;;;;-4.28;100.00;102449.03;10344384;28;20049;-74
2023/03/28 04:49:34;;;;;;;17.83;12.00;;;;;;;-4.34;100.00;102441.50;10370937;28;20038;-75
2023/03/28 04:54:34;;;;;;;46.00;11.80;;;;;;;-4.38;100.00;102444.34;10392915;28;20501;-75
2023/03/28 04:59:34;;;;;;;19.27;11.67;;;;;;;-4.46;100.00;102450.09;10377937;28;20073;-75
2023/03/28 05:04:36;;;;;;;25.53;13.30;;;;;;;-4.61;100.00;102452.44;10380523;28;20095;-76
2023/03/28 05:09:55;;;;;;;21.50;12.23;;;;;;;-4.46;100.00;102455.19;10375975;28;20087;-76
2023/03/28 05:14:55;;;;;;;45.63;13.27;;;;;;;-4.43;100.00;102453.03;10370839;28;20037;-76
2023/03/28 05:19:56;;;;;;;31.60;12.83;;;;;;;-4.51;100.00;102454.56;10375480;28;20469;-76
2023/03/28 05:24:56;;;;;;;18.60;9.00;;;;;;;-4.55;100.00;102462.53;10380240;28;20128;-76
2023/03/28 05:29:57;;;;;;;22.50;13.13;;;;;;;-4.47;100.00;102466.13;10371996;28;20052;-76
2023/03/28 05:34:57;;;;;;;21.87;11.73;;;;;;;-4.43;100.00;102476.97;10370001;28;20034;-76
2023/03/28 05:39:58;;;;;;;19.53;11.50;;;;;;;-4.32;100.00;102487.69;10363920;28;20111;-77
2023/03/28 05:44:58;;;;;;;20.00;12.10;;;;;;;-4.20;100.00;102486.75;10393104;28;20061;-76
2023/03/28 05:49:59;;;;;;;17.97;10.77;;;;;;;-4.15;100.00;102480.63;10378116;28;20120;-76
2023/03/28 05:54:59;;;;;;;22.23;13.00;;;;;;;-4.03;100.00;102473.66;10358198;28;20045;-77
2023/03/28 06:00:00;;;;;;;20.73;11.10;;;;;;;-3.80;100.00;102479.94;10360095;28;20132;-76
2023/03/28 06:05:01;;;;;;;19.77;11.87;;;;;;;-3.73;100.00;102468.16;10391604;28;20066;-76
2023/03/28 06:10:02;;;;;;;23.40;10.87;;;;;;;-3.41;100.00;102480.75;10376422;28;20045;-76
2023/03/28 06:15:03;;;;;;;21.45;12.10;;;;;;;-2.58;100.00;102472.47;10359614;28;20055;-76
2023/03/28 06:20:05;;;;;;;16.00;10.70;;;;;;;-1.37;100.00;102470.94;10369898;28;20050;-76
2023/03/28 06:25:06;;;;;;;17.40;7.20;;;;;;;-0.03;100.00;102466.94;10391516;28;20041;-76
2023/03/28 06:30:07;;;;;;;15.00;6.57;;;;;;;1.28;100.00;102465.34;10377425;28;20045;-75
2023/03/28 06:35:07;;;;;;;10.70;6.50;;;;;;;2.31;100.00;102463.44;10357510;28;20046;-76
2023/03/28 06:40:09;;;;;;;10.65;4.55;;;;;;;3.70;100.00;102458.72;10351306;28;20135;-76
2023/03/28 06:45:10;;;;;;;8.68;6.05;;;;;;;4.55;100.00;102429.88;10362860;28;20133;-76
2023/03/28 06:50:11;;;;;;;12.10;5.28;;;;;;;5.83;100.00;102438.41;10326554;28;20037;-75
2023/03/28 06:55:11;;;;;;;12.32;6.25;;;;;;;6.13;100.00;102448.91;10335922;28;20513;-75
2023/03/28 07:00:12;;;;;;;10.15;4.82;;;;;;;5.00;100.00;102462.72;10342477;28;20129;-75
2023/03/28 07:05:13;;;;;;;10.90;4.70;;;;;;;3.68;100.00;102460.22;10314759;28;20078;-75
2023/03/28 07:10:13;;;;;;;12.93;5.28;;;;;;;3.36;100.00;102457.88;10317195;28;20137;-75
2023/03/28 07:15:14;;;;;;;11.65;6.22;;;;;;;4.21;100.00;102457.69;10352673;28;20041;-77
2023/03/28 07:20:15;;;;;;;12.32;5.90;;;;;;;5.74;100.00;102468.72;10381161;28;20049;-75
2023/03/28 07:25:16;;;;;;;11.75;5.38;;;;;;;6.32;100.00;102472.28;10386108;28;20046;-74
2023/03/28 07:30:16;;;;;;;13.00;6.75;;;;;;;6.42;100.00;102477.53;10360022;28;20065;-76
2023/03/28 07:35:17;;;;;;;16.40;5.40;;;;;;;6.58;100.00;102487.66;10358220;28;20436;-77
2023/03/28 07:40:17;;;;;;;10.45;5.25;;;;;;;6.97;100.00;102495.38;10381385;28;20042;-76
2023/03/28 07:45:18;;;;;;;9.82;4.88;;;;;;;7.82;100.00;102491.34;10365924;28;20138;-76
2023/03/28 07:50:18;;;;;;;10.90;5.18;;;;;;;8.64;100.00;102506.88;10366128;28;20129;-74
2023/03/28 07:55:19;;;;;;;11.05;5.60;;;;;;;8.52;100.00;102503.28;10364135;28;20081;-75
2023/03/28 08:00:22;;;;;;;10.45;4.78;;;;;;;9.36;99.94;102497.78;10380264;28;20544;-76
2023/03/28 08:05:22;;;;;;;8.05;4.30;;;;;;;10.30;89.10;102500.53;10365614;28;20107;-75
2023/03/28 08:10:23;;;;;;;12.60;5.13;;;;;;;11.00;83.16;102498.69;10366370;28;20191;-76
2023/03/28 08:15:24;;;;;;;10.27;4.15;;;;;;;11.98;81.80;102491.44;10365224;28;20105;-75
2023/03/28 08:20:24;;;;;;;11.63;3.88;;;;;;;10.83;78.15;102486.97;10365679;28;20784;-75
2023/03/28 08:25:25;;;;;;;9.57;4.10;;;;;;;9.89;83.32;102491.38;10363700;28;20512;-76
2023/03/28 08:30:25;;;;;;;12.35;4.45;;;;;;;8.94;91.77;102496.19;10363279;28;20549;-75
2023/03/28 08:35:26;;;;;;;12.50;4.43;;;;;;;8.87;91.19;102480.81;10361237;28;20042;-74
2023/03/28 08:40:27;;;;;;;10.15;4.43;;;;;;;8.36;90.60;102488.00;10361762;28;20490;-75
2023/03/28 08:45:34;;;;;;;10.15;5.68;;;;;;;8.02;94.83;102496.53;10358940;28;20593;-75
2023/03/28 08:51:01;;;;;;;8.60;3.83;;;;;;;8.54;94.26;102490.34;10387972;28;20029;-74
2023/03/28 08:56:03;;;;;;;10.85;4.70;;;;;;;8.99;96.60;102473.97;10362388;28;20052;-74
2023/03/28 09:01:04;;;;;;;16.02;5.30;;;;;;;9.47;90.18;102475.09;10363337;28;20030;-77
2023/03/28 09:06:28;;;;;;;8.32;3.38;;;;;;;10.52;85.78;102470.75;10360211;28;20072;-76
2023/03/28 09:11:39;;;;;;;8.05;2.35;;;;;;;10.35;80.37;102461.59;10361842;28;20038;-74
2023/03/28 09:16:51;;;;;;;8.63;2.35;;;;;;;10.26;76.55;102467.09;10361066;28;20042;-76
2023/03/28 09:22:10;;;;;;;16.85;3.60;;;;;;;9.03;78.38;102459.47;10362342;28;20054;-77
2023/03/28 09:27:19;;;;;;;13.95;2.58;;;;;;;9.06;80.61;102450.16;10361797;28;20053;-77
2023/03/28 09:32:29;;;;;;;9.18;2.40;;;;;;;9.46;79.39;102448.84;10363242;28;20050;-77
2023/03/28 09:37:38;;;;;;;7.15;2.65;;;;;;;9.00;77.30;102457.50;10359390;28;20042;-76
2023/03/28 09:42:56;;;;;;;5.57;2.45;;;;;;;9.02;77.95;102447.19;10344422;28;20041;-76
2023/03/28 09:47:57;;;;;;;10.38;2.40;;;;;;;9.04;76.57;102432.56;10356647;28;20128;-75
2023/03/28 09:52:57;;;;;;;4.05;2.08;;;;;;;8.50;75.74;102435.28;10361020;28;20034;-75
2023/03/28 09:58:11;;;;;;;7.20;2.28;;;;;;;8.64;78.17;102427.66;10361055;28;20067;-75
2023/03/28 10:03:33;;;;;;;7.47;3.72;;;;;;;8.41;76.35;102420.56;10361679;28;20371;-75
2023/03/28 10:08:35;;;;;;;9.48;2.95;;;;;;;8.75;76.43;102416.38;10360005;28;20049;-75
2023/03/28 10:13:39;;;;;;;7.68;3.15;;;;;;;8.70;73.91;102417.72;10360017;28;20136;-76
2023/03/28 10:18:40;;;;;;;14.25;2.50;;;;;;;8.31;75.00;102403.22;10360472;28;20053;-75
2023/03/28 10:23:43;;;;;;;8.23;2.65;;;;;;;8.90;73.13;102397.50;10360063;28;20042;-76
2023/03/28 10:28:43;;;;;;;5.35;1.77;;;;;;;9.31;66.68;102399.81;10359693;28;20045;-76
2023/03/28 10:33:45;;;;;;;6.40;2.25;;;;;;;9.63;63.86;102393.53;10359780;28;20111;-75
2023/03/28 10:38:47;;;;;;;7.88;1.58;;;;;;;10.26;64.09;102384.25;10344429;28;20041;-76
2023/03/28 10:43:47;;;;;;;4.33;2.00;;;;;;;9.88;62.86;102374.47;10359657;28;20477;-77
2023/03/28 10:49:00;;;;;;;4.57;2.22;;;;;;;9.60;62.60;102361.94;10359270;28;20121;-75
2023/03/28 10:54:09;;;;;;;6.03;2.63;;;;;;;10.29;59.72;102352.16;10361245;28;20156;-76
2023/03/28 10:59:26;;;;;;;8.77;2.30;;;;;;;9.84;58.59;102341.97;10360383;28;20134;-77
2023/03/28 11:04:56;;;;;;;9.35;2.03;;;;;;;10.61;59.35;102339.59;10360632;28;20379;-76
2023/03/28 11:10:27;;;;;;;4.95;1.70;;;;;;;11.84;53.66;102347.13;10360701;28;20070;-76
2023/03/28 11:15:33;;;;;;;7.00;3.42;;;;;;;12.62;51.65;102318.84;10360810;28;20056;-76
2023/03/28 11:21:00;;;;;;;6.90;2.00;;;;;;;12.94;49.27;102316.41;10352718;28;20437;-76
2023/03/28 11:26:00;;;;;;;3.70;1.90;;;;;;;13.16;45.85;102305.47;10317485;28;20039;-76
2023/03/28 11:31:00;;;;;;;6.82;2.35;;;;;;;14.11;46.68;102292.53;10318924;28;20386;-76
2023/03/28 11:36:07;;;;;;;7.05;1.98;;;;;;;15.83;45.14;102290.91;10319010;28;20039;-76
2023/03/28 11:41:21;;;;;;;8.27;1.98;;;;;;;14.00;44.29;102281.38;10317029;28;20041;-76
2023/03/28 11:46:28;;;;;;;6.13;2.30;;;;;;;13.18;44.88;102272.28;10302213;28;20121;-76
2023/03/28 11:51:35;;;;;;;7.63;1.48;;;;;;;13.80;47.38;102264.47;10301562;28;20036;-77
2023/03/28 11:56:47;;;;;;;7.53;2.30;;;;;;;15.01;42.54;102251.63;10303353;28;20042;-76
2023/03/28 12:01:51;;;;;;;6.03;2.67;;;;;;;13.84;42.21;102244.50;10319292;28;20097;-76
2023/03/28 12:07:37;;;;;;;6.32;2.78;;;;;;;14.17;40.36;102234.94;10323196;28;20058;-76
2023/03/28 12:12:50;;;;;;;4.72;2.15;;;;;;;14.47;39.08;102205.81;10201388;28;20118;-76
2023/03/28 12:18:00;;;;;;;4.53;1.90;;;;;;;13.36;42.62;102205.81;10312035;28;20037;-76
2023/03/28 12:23:03;;;;;;;9.75;2.42;;;;;;;11.72;44.70;102196.81;10349533;28;20038;-76
2023/03/28 12:28:03;;;;;;;8.70;2.53;;;;;;;10.63;47.49;102204.47;10363854;28;20045;-76
2023/03/28 12:33:13;;;;;;;5.22;1.90;;;;;;;9.92;47.03;102203.91;10366101;28;20037;-77
2023/03/28 12:38:38;;;;;;;6.07;3.40;;;;;;;10.10;50.43;102178.16;10365737;28;20091;-77
2023/03/28 12:43:42;;;;;;;4.40;2.53;;;;;;;10.64;50.80;102167.94;10364568;28;20061;-76
2023/03/28 12:48:46;;;;;;;7.30;1.83;;;;;;;11.01;48.81;102167.81;10364798;28;20053;-76
2023/03/28 12:54:07;;;;;;;4.55;2.05;;;;;;;11.42;48.76;102158.22;10364307;28;20061;-77
2023/03/28 12:59:38;;;;;;;5.93;1.98;;;;;;;11.56;48.00;102145.09;10364086;28;20034;-76
2023/03/28 13:04:53;;;;;;;4.25;1.80;;;;;;;11.31;48.10;102152.28;10364710;28;20470;-77
2023/03/28 13:10:23;;;;;;;4.00;1.65;;;;;;;12.51;47.88;102138.72;10363158;28;20030;-77
2023/03/28 13:15:26;;;;;;;12.50;2.58;;;;;;;13.95;42.78;102127.56;10306394;28;20030;-77
2023/03/28 13:20:26;;;;;;;5.13;1.98;;;;;;;14.56;43.49;102114.94;10323144;28;20442;-76
2023/03/28 13:25:33;;;;;;;8.52;2.65;;;;;;;14.24;42.93;102129.13;10322964;28;20089;-77
2023/03/28 13:30:34;;;;;;;7.82;2.70;;;;;;;14.63;42.35;102120.56;10323265;28;20042;-76
2023/03/28 13:35:48;;;;;;;10.68;3.72;;;;;;;15.27;39.34;102106.16;10344053;28;20121;-76
2023/03/28 13:40:59;;;;;;;6.05;3.28;;;;;;;15.31;42.59;102108.97;10344040;28;20504;-77
2023/03/28 13:46:18;;;;;;;11.35;3.70;;;;;;;15.45;41.30;102091.16;10363987;28;20053;-76
2023/03/28 13:51:23;;;;;;;7.32;2.97;;;;;;;16.63;41.62;102070.88;10363218;28;20045;-76
2023/03/28 13:56:26;;;;;;;5.07;2.42;;;;;;;16.24;40.27;102074.53;10385185;28;20034;-77
2023/03/28 14:01:35;;;;;;;3.63;1.83;;;;;;;15.53;41.54;102059.03;10361455;28;20038;-77
2023/03/28 14:06:39;;;;;;;3.63;1.83;;;;;;;15.25;40.76;102057.72;10362274;28;20037;-77
2023/03/28 14:11:39;;;;;;;3.72;2.08;;;;;;;14.32;41.45;102047.00;10362699;28;20565;-77
2023/03/28 14:16:41;;;;;;;6.80;2.25;;;;;;;13.41;41.62;102043.06;10368372;28;20034;-76
2023/03/28 14:21:42;;;;;;;9.98;2.40;;;;;;;12.55;42.49;102035.66;10377451;28;20481;-76
2023/03/28 14:26:42;;;;;;;4.82;2.03;;;;;;;11.48;45.66;102028.34;10367311;28;20077;-77
2023/03/28 14:31:44;;;;;;;3.92;1.60;;;;;;;10.93;45.69;102024.00;10366503;28;20569;-76
2023/03/28 14:36:58;;;;;;;;;;;;;;;10.28;50.11;102008.44;10344124;28;20062;-76
2023/03/28 14:42:01;;;;;;;5.55;2.10;;;;;;;10.07;50.62;102002.69;10339987;28;19928;-77
2023/03/28 14:47:01;;;;;;;7.53;2.20;;;;;;;10.50;50.94;101995.94;10358191;28;20089;-76
2023/03/28 14:52:02;;;;;;;7.80;2.10;;;;;;;10.68;52.51;101986.69;10342825;28;20520;-77
2023/03/28 14:57:03;;;;;;;5.85;2.92;;;;;;;10.78;52.74;101968.94;10353313;28;20117;-76
2023/03/28 15:02:04;;;;;;;5.53;2.70;;;;;;;10.85;52.88;101955.44;10357083;28;20052;-75
2023/03/28 15:07:07;;;;;;;5.57;2.17;;;;;;;10.61;51.31;101942.59;10359173;28;20128;-76
2023/03/28 15:12:09;;;;;;;4.32;1.70;;;;;;;10.03;50.75;101926.53;10336830;28;20486;-76
2023/03/28 15:17:18;;;;;;;5.75;2.80;;;;;;;9.54;52.25;101923.31;10373431;28;20042;-76
2023/03/28 15:22:24;;;;;;;5.22;2.28;;;;;;;9.28;53.56;101911.03;10401856;28;20117;-76
2023/03/28 15:27:31;;;;;;;20.20;2.03;;;;;;;9.33;54.68;101900.94;10342297;28;20037;-76
2023/03/28 15:32:32;;;;;;;6.85;3.53;;;;;;;9.46;54.75;101894.81;10341627;28;20038;-77
2023/03/28 15:37:40;;;;;;;27.42;3.20;;;;;;;9.57;52.63;101886.00;10353312;28;20116;-74
2023/03/28 15:42:41;;;;;;;4.97;2.45;;;;;;;9.53;53.98;101873.53;10359831;28;20116;-74
2023/03/28 15:47:41;;;;;;;4.03;2.30;;;;;;;9.59;52.96;101868.72;10345114;28;20128;-75
2023/03/28 15:52:42;;;;;;;14.32;5.22;;;;;;;9.74;55.78;101867.94;10389861;28;20050;-75
2023/03/28 15:57:43;;;;;;;8.40;3.65;;;;;;;9.62;55.56;101861.09;10348880;28;20032;-77
2023/03/28 16:02:44;;;;;;;6.70;3.28;;;;;;;9.42;52.46;101851.91;10345035;28;20119;-74
2023/03/28 16:07:48;;;;;;;4.57;2.22;;;;;;;9.05;56.81;101859.81;10358487;28;20120;-75
2023/03/28 16:12:51;;;;;;;11.48;2.03;;;;;;;8.81;56.34;101857.31;10369918;28;20125;-77
2023/03/28 16:17:54;;;;;;;7.20;2.17;;;;;;;8.58;57.54;101861.78;10362985;28;20027;-75
2023/03/28 16:22:54;;;;;;;5.55;2.20;;;;;;;8.44;58.40;101847.72;10362130;28;20045;-77
2023/03/28 16:27:55;;;;;;;4.00;1.88;;;;;;;8.38;58.52;101845.59;10364885;28;20117;-77
2023/03/28 16:32:56;;;;;;;5.47;2.15;;;;;;;8.18;60.22;101851.06;10358131;28;20049;-76
2023/03/28 16:37:56;;;;;;;3.03;2.50;;;;;;;8.15;59.82;101840.41;10364402;28;20121;-76
2023/03/28 16:43:02;;;;;;;7.93;3.38;;;;;;;8.01;60.26;101837.69;10389352;28;20494;-76
2023/03/28 16:48:03;;;;;;;3.90;1.33;;;;;;;7.86;60.75;101831.34;10363362;28;20149;-76
2023/03/28 16:53:05;;;;;;;5.22;2.42;;;;;;;7.75;61.29;101828.84;10360557;28;20095;-75
2023/03/28 16:58:05;;;;;;;5.22;1.95;;;;;;;7.66;62.29;101828.16;10346775;28;20038;-76
2023/03/28 17:03:06;;;;;;;5.07;2.33;;;;;;;7.54;64.78;101835.03;10364922;28;20058;-76
2023/03/28 17:08:06;;;;;;;7.97;2.30;;;;;;;7.44;64.70;101836.97;10393505;28;20061;-77
2023/03/28 17:13:07;;;;;;;7.55;2.85;;;;;;;7.42;64.83;101830.72;10361422;28;20073;-75
2023/03/28 17:18:08;;;;;;;3.90;1.70;;;;;;;7.39;68.70;101839.97;10364805;28;20033;-75
2023/03/28 17:23:09;;;;;;;6.63;1.50;;;;;;;7.27;71.37;101847.78;10361890;28;20362;-75
2023/03/28 17:28:10;;;;;;;2.28;0.90;;;;;;;7.12;76.45;101842.28;10394128;28;20046;-75
2023/03/28 17:33:10;;;;;;;3.80;0.90;;;;;;;6.88;85.27;101844.78;10393560;28;20062;-75
2023/03/28 17:38:11;;;;;;;2.53;1.10;;;;;;;6.75;89.08;101846.44;10373973;28;20054;-76
2023/03/28 17:43:12;;;;;;;2.90;1.08;;;;;;;6.51;100.00;101839.28;10357156;28;20049;-76
2023/03/28 17:48:12;;;;;;;2.58;1.27;;;;;;;6.34;95.38;101825.84;10358473;28;20124;-77
2023/03/28 17:53:13;;;;;;;3.17;1.27;;;;;;;6.43;97.87;101834.38;10388129;28;20476;-76
2023/03/28 17:58:14;;;;;;;7.55;2.10;;;;;;;6.46;97.68;101834.63;10402971;28;20176;-75
2023/03/28 18:03:15;;;;;;;9.17;1.73;;;;;;;6.49;96.05;101833.06;10364655;28;20056;-75
2023/03/28 18:08:16;;;;;;;4.35;1.60;;;;;;;6.35;93.72;101831.97;10342913;28;20050;-76
2023/03/28 18:13:16;;;;;;;3.80;1.58;;;;;;;6.38;93.25;101820.09;10343679;28;20458;-76
2023/03/28 18:18:17;;;;;;;5.82;1.77;;;;;;;6.28;95.40;101820.16;10360775;28;20128;-76
2023/03/28 18:23:17;;;;;;;6.03;1.70;;;;;;;6.21;94.75;101823.97;10361830;28;20069;-75
2023/03/28 18:28:22;;;;;;;3.42;1.90;;;;;;;6.19;95.20;101832.41;10361055;28;20076;-76
2023/03/28 18:33:22;;;;;;;4.38;2.53;;;;;;;5.83;100.00;101830.41;10358543;28;20041;-75
2023/03/28 18:38:23;;;;;;;4.03;1.38;;;;;;;5.65;100.00;101840.19;10360635;28;20038;-75
2023/03/28 18:43:23;;;;;;;2.60;1.23;;;;;;;5.54;100.00;101835.78;10363338;28;20049;-77
2023/03/28 18:48:24;;;;;;;2.30;1.10;;;;;;;5.28;100.00;101831.91;10400756;28;20132;-75
2023/03/28 18:53:26;;;;;;;8.18;2.67;;;;;;;5.13;100.00;101836.69;10373944;28;20502;-75
2023/03/28 18:58:27;;;;;;;3.75;2.13;;;;;;;5.03;100.00;101829.84;10358303;28;20057;-75
2023/03/28 19:03:29;;;;;;;5.43;2.58;;;;;;;4.96;100.00;101836.16;10357564;28;20450;-75
2023/03/28 19:08:30;;;;;;;6.65;2.08;;;;;;;4.70;100.00;101845.19;10406314;28;20038;-75
2023/03/28 19:13:30;;;;;;;5.88;3.00;;;;;;;4.46;100.00;101838.78;10358995;28;20081;-78
2023/03/28 19:18:32;;;;;;;4.57;1.70;;;;;;;4.28;100.00;101824.22;10348075;28;20134;-76
2023/03/28 19:23:32;;;;;;;4.75;2.60;;;;;;;4.09;100.00;101815.69;10367029;28;20121;-76
2023/03/28 19:28:33;;;;;;;4.68;2.63;;;;;;;3.99;100.00;101786.25;10363729;28;20478;-77
2023/03/28 19:33:35;;;;;;;4.25;2.08;;;;;;;3.99;100.00;101778.50;10381855;28;20038;-75
2023/03/28 19:38:36;;;;;;;4.65;1.98;;;;;;;3.85;100.00;101782.44;10381081;28;20129;-76
2023/03/28 19:43:37;;;;;;;3.50;2.33;;;;;;;3.68;100.00;101771.47;10364164;28;20490;-76
2023/03/28 19:48:39;;;;;;;11.82;2.35;;;;;;;3.64;100.00;101778.06;10364096;28;20073;-75
2023/03/28 19:53:42;;;;;;;6.78;3.00;;;;;;;3.50;100.00;101766.44;10380721;28;20033;-76
2023/03/28 19:58:46;;;;;;;5.55;2.13;;;;;;;3.30;100.00;101758.53;10363175;28;20042;-76
2023/03/28 20:03:51;;;;;;;7.93;2.20;;;;;;;3.19;100.00;101755.88;10332810;28;20038;-76
2023/03/28 20:08:51;;;;;;;7.25;3.50;;;;;;;3.19;100.00;101750.72;10323343;28;20494;-76
2023/03/28 20:13:52;;;;;;;6.57;2.85;;;;;;;3.19;100.00;101735.19;10334771;28;20072;-75
2023/03/28 20:18:54;;;;;;;8.02;2.63;;;;;;;3.21;100.00;101727.59;10363139;28;20124;-75
2023/03/28 20:23:55;;;;;;;5.93;2.97;;;;;;;3.27;100.00;101734.97;10323008;28;20084;-75
2023/03/28 20:28:58;;;;;;;5.57;2.60;;;;;;;3.38;100.00;101723.94;10339837;28;20177;-76
2023/03/28 20:33:58;;;;;;;6.47;2.88;;;;;;;3.43;100.00;101722.66;10373575;28;20397;-75
2023/03/28 20:39:00;;;;;;;6.97;3.37;;;;;;;3.56;100.00;101718.59;10366131;28;20481;-76
2023/03/28 20:44:03;;;;;;;6.53;2.97;;;;;;;3.65;100.00;101715.16;10363205;28;20046;-76
2023/03/28 20:49:05;;;;;;;4.60;2.30;;;;;;;3.76;100.00;101707.44;10357623;28;20030;-74
2023/03/28 20:54:05;;;;;;;4.83;2.90;;;;;;;3.77;100.00;101689.44;10371700;28;20505;-75
2023/03/28 20:59:06;;;;;;;5.88;2.83;;;;;;;3.80;100.00;101665.50;10366746;28;20117;-75
2023/03/28 21:04:07;;;;;;;6.22;2.72;;;;;;;3.87;100.00;101666.94;10365178;28;20121;-75
2023/03/28 21:09:09;;;;;;;8.88;3.85;;;;;;;3.86;100.00;101657.34;10380724;28;20040;-75
2023/03/28 21:14:11;;;;;;;8.57;3.30;;;;;;;3.86;100.00;101640.13;10342537;28;20414;-75
2023/03/28 21:19:11;;;;;;;5.15;3.13;;;;;;;3.92;100.00;101637.16;10346410;28;20084;-75
2023/03/28 21:24:12;;;;;;;4.72;2.78;;;;;;;3.90;100.00;101637.03;10391053;28;20048;-75
2023/03/28 21:29:12;;;;;;;7.43;2.72;;;;;;;3.93;100.00;101637.31;10323864;28;20546;-75
2023/03/28 21:34:13;;;;;;;10.73;3.05;;;;;;;3.82;100.00;101649.31;10334119;28;20048;-75
2023/03/28 21:39:13;;;;;;;14.90;3.88;;;;;;;3.68;100.00;101642.00;10362576;28;20037;-75
2023/03/28 21:44:14;;;;;;;8.73;3.08;;;;;;;3.62;100.00;101644.06;10377487;28;20182;-75
2023/03/28 21:49:17;;;;;;;8.77;3.28;;;;;;;3.57;100.00;101634.97;10360819;28;20064;-75
2023/03/28 21:54:17;;;;;;;5.68;2.83;;;;;;;3.70;100.00;101640.47;10363635;28;20045;-75
2023/03/28 21:59:18;;;;;;;7.40;3.70;;;;;;;3.81;100.00;101638.81;10392845;28;20057;-76
2023/03/28 22:04:18;;;;;;;4.78;2.65;;;;;;;3.82;100.00;101618.22;10360234;28;20061;-76
2023/03/28 22:09:20;;;;;;;7.18;4.15;;;;;;;3.87;100.00;101600.50;10360777;28;20042;-75
2023/03/28 22:14:20;;;;;;;6.38;3.97;;;;;;;3.90;100.00;101605.03;10359380;28;20038;-75
2023/03/28 22:19:21;;;;;;;7.28;3.00;;;;;;;3.95;100.00;101595.97;10361183;28;20054;-76
2023/03/28 22:24:23;;;;;;;8.25;2.88;;;;;;;3.99;100.00;101587.69;10363277;28;20048;-76
2023/03/28 22:29:24;;;;;;;7.10;3.70;;;;;;;3.94;100.00;101586.41;10350374;28;20080;-76
2023/03/28 22:34:25;;;;;;;8.27;4.40;;;;;;;4.04;100.00;101582.94;10343090;28;20064;-75
2023/03/28 22:39:25;;;;;;;6.20;3.28;;;;;;;4.01;100.00;101575.78;10359085;28;20513;-76
2023/03/28 22:44:26;;;;;;;6.72;2.97;;;;;;;4.02;100.00;101582.78;10366781;28;20124;-76
2023/03/28 22:49:30;;;;;;;7.72;3.85;;;;;;;4.07;100.00;101583.19;10359301;28;20124;-76
2023/03/28 22:54:31;;;;;;;9.25;3.50;;;;;;;4.05;100.00;101571.78;10342598;28;20049;-75
2023/03/28 22:59:32;;;;;;;5.70;3.27;;;;;;;4.06;100.00;101553.75;10364148;28;20405;-76
2023/03/28 23:04:33;;;;;;;9.85;3.83;;;;;;;4.04;100.00;101544.06;10360686;28;20146;-75
2023/03/28 23:09:36;;;;;;;7.10;4.03;;;;;;;4.08;100.00;101528.91;10359814;28;20119;-76